Time;durP1;ratioP1;P1;durP2;ratioP2;P2;SDS_P1;SDS_P2;PMS_P1;PMS_P2;Temp;Humidity;BMP_temperature;BMP_pressure;BME280_temperature;BME280_humidity;BME280_pressure;Samples;Min_cycle;Max_cycle;Signal;HPM_P1;HPM_P2
2022/12/18 03:51:38;;;;;;;1.70;1.60;;;;;;;4.17;85.36;101268.45;1777119;79;21627;-81
2022/12/18 03:54:05;;;;;;;1.85;1.70;;;;;;;4.19;85.61;101278.81;1776706;80;20899;-82
2022/12/18 03:56:38;;;;;;;1.92;1.82;;;;;;;4.21;85.30;101288.72;1778367;78;20938;-84
2022/12/18 03:59:05;;;;;;;1.45;1.35;;;;;;;4.21;85.32;101292.61;1743602;80;21007;-84
2022/12/18 04:01:37;;;;;;;2.95;1.52;;;;;;;4.26;85.32;101293.34;1772325;79;21112;-82
2022/12/18 04:04:04;;;;;;;1.50;1.32;;;;;;;4.31;85.35;101290.19;1773880;79;20864;-83
2022/12/18 04:06:35;;;;;;;1.50;1.40;;;;;;;4.30;84.44;101301.03;1775188;80;20907;-83
2022/12/18 04:09:02;;;;;;;1.82;1.50;;;;;;;4.28;84.30;101300.66;1774311;79;21401;-83
2022/12/18 04:11:30;;;;;;;2.87;2.17;;;;;;;4.24;84.49;101297.27;1778378;79;20871;-83
2022/12/18 04:14:00;;;;;;;1.75;1.60;;;;;;;4.22;84.27;101302.94;1775551;79;21204;-85
2022/12/18 04:16:28;;;;;;;1.00;1.00;;;;;;;4.19;84.14;101304.31;1774460;79;20926;-82
2022/12/18 04:18:56;;;;;;;1.45;1.12;;;;;;;4.17;84.25;101305.24;1775652;79;20919;-83
2022/12/18 04:21:25;;;;;;;1.47;1.17;;;;;;;4.12;84.23;101304.05;1776739;80;20914;-83
2022/12/18 04:23:54;;;;;;;1.77;1.67;;;;;;;4.08;84.31;101307.59;1750117;79;20950;-83
2022/12/18 04:26:22;;;;;;;1.30;1.20;;;;;;;4.02;84.80;101305.97;1775847;79;21215;-83
2022/12/18 04:28:54;;;;;;;1.87;1.55;;;;;;;4.05;84.94;101318.91;1774842;79;21096;-82
2022/12/18 04:31:21;;;;;;;1.60;1.50;;;;;;;4.07;84.87;101326.63;1775185;79;20979;-83
2022/12/18 04:33:48;;;;;;;21.23;11.95;;;;;;;4.06;85.00;101328.83;1754868;80;21002;-83
2022/12/18 04:36:14;;;;;;;1.85;1.45;;;;;;;4.06;84.89;101335.32;1765932;80;21495;-84
2022/12/18 04:38:41;;;;;;;1.50;1.40;;;;;;;4.08;85.05;101342.63;1768160;80;21764;-84
2022/12/18 04:41:09;;;;;;;1.52;1.25;;;;;;;4.06;84.96;101341.81;1749532;80;20861;-84
2022/12/18 04:43:36;;;;;;;1.37;1.27;;;;;;;4.06;85.06;101335.32;1767922;79;20897;-83
2022/12/18 04:46:05;;;;;;;1.40;1.25;;;;;;;4.09;85.20;101335.24;1767725;80;21525;-82
2022/12/18 04:48:32;;;;;;;1.67;1.57;;;;;;;4.11;85.69;101342.14;1751548;80;21492;-84
2022/12/18 04:50:59;;;;;;;2.85;2.33;;;;;;;4.20;85.81;101337.16;1750361;80;21859;-83
2022/12/18 04:53:26;;;;;;;3.90;2.37;;;;;;;4.25;85.14;101341.83;1753543;80;21532;-86
2022/12/18 04:56:09;;;;;;;2.33;2.12;;;;;;;4.23;84.67;101350.09;1760469;80;20974;-83
2022/12/18 04:58:37;;;;;;;2.27;2.10;;;;;;;4.21;84.52;101358.80;1749257;79;20931;-83
2022/12/18 05:01:04;;;;;;;3.47;2.70;;;;;;;4.17;84.52;101366.25;1747430;80;20967;-83
2022/12/18 05:03:30;;;;;;;4.08;3.37;;;;;;;4.16;84.74;101357.61;1748877;80;21128;-83
2022/12/18 05:05:57;;;;;;;6.08;3.77;;;;;;;4.15;84.66;101364.52;1753000;79;20971;-83
2022/12/18 05:08:25;;;;;;;4.65;4.20;;;;;;;4.14;84.68;101371.06;1760153;80;20939;-84
2022/12/18 05:11:10;;;;;;;6.00;5.00;;;;;;;4.15;84.55;101383.98;1754184;80;21426;-82
2022/12/18 05:13:37;;;;;;;6.65;5.95;;;;;;;4.13;84.38;101385.76;1747271;80;20861;-83
2022/12/18 05:16:05;;;;;;;10.90;6.50;;;;;;;4.08;84.23;101391.49;1761336;80;21699;-84
2022/12/18 05:18:33;;;;;;;9.15;7.50;;;;;;;4.07;84.13;101394.11;1739532;79;21472;-83
2022/12/18 05:21:00;;;;;;;11.78;7.35;;;;;;;4.04;84.30;101395.48;1742673;80;20891;-84
2022/12/18 05:23:28;;;;;;;12.50;8.25;;;;;;;4.08;84.61;101408.81;1739884;80;21408;-83
2022/12/18 05:26:00;;;;;;;12.40;8.55;;;;;;;4.12;84.61;101402.23;1743872;80;21078;-82
2022/12/18 05:28:29;;;;;;;13.03;8.78;;;;;;;4.18;84.86;101405.58;1738907;80;21208;-83
2022/12/18 05:30:58;;;;;;;17.62;10.40;;;;;;;4.24;84.76;101416.69;1744733;80;21046;-82
2022/12/18 05:33:28;;;;;;;14.63;9.68;;;;;;;4.29;84.20;101406.20;1749242;80;20936;-82
2022/12/18 05:35:58;;;;;;;13.25;8.65;;;;;;;4.23;83.32;101428.42;1767512;80;20987;-83
2022/12/18 05:38:25;;;;;;;10.48;8.30;;;;;;;4.15;83.12;101433.30;1759695;80;20915;-83
2022/12/18 05:40:53;;;;;;;10.28;7.42;;;;;;;4.10;83.12;101441.64;1757584;80;21839;-84
2022/12/18 05:43:21;;;;;;;11.48;8.68;;;;;;;4.05;82.96;101455.16;1750230;80;20995;-83
2022/12/18 05:45:48;;;;;;;11.97;8.23;;;;;;;3.95;82.96;101451.86;1765700;79;20912;-87
2022/12/18 05:48:15;;;;;;;13.83;9.48;;;;;;;3.86;82.94;101459.83;1767409;80;20928;-82
2022/12/18 05:50:45;;;;;;;11.60;8.60;;;;;;;3.80;82.92;101461.68;1743874;80;20916;-83
2022/12/18 05:53:16;;;;;;;11.28;8.08;;;;;;;3.73;82.96;101474.78;1754922;80;21212;-83
2022/12/18 05:55:43;;;;;;;10.60;7.25;;;;;;;3.71;82.65;101457.52;1761735;80;21016;-84
2022/12/18 05:58:11;;;;;;;9.18;6.55;;;;;;;3.70;83.08;101462.30;1760714;80;21477;-83
2022/12/18 06:00:40;;;;;;;9.50;7.70;;;;;;;3.73;83.01;101464.41;1762014;80;21733;-85
2022/12/18 06:03:08;;;;;;;8.33;7.00;;;;;;;3.75;82.81;101468.25;1753698;79;21015;-83
2022/12/18 06:05:37;;;;;;;11.75;8.48;;;;;;;3.73;82.79;101468.30;1775274;79;21875;-85
2022/12/18 06:08:04;;;;;;;10.43;7.55;;;;;;;3.74;83.41;101472.59;1776660;79;20990;-84
2022/12/18 06:10:31;;;;;;;11.03;8.38;;;;;;;3.80;83.39;101481.13;1776538;79;20859;-84
2022/12/18 06:12:58;;;;;;;12.63;9.30;;;;;;;3.83;83.32;101484.99;1776446;78;21002;-84
2022/12/18 06:15:24;;;;;;;11.35;7.85;;;;;;;3.82;83.44;101492.34;1776116;79;20919;-82
2022/12/18 06:17:51;;;;;;;9.00;7.00;;;;;;;3.85;83.38;101493.16;1747895;80;21234;-82
2022/12/18 06:20:18;;;;;;;9.18;7.20;;;;;;;3.91;83.35;101507.33;1748937;80;20883;-83
2022/12/18 06:22:45;;;;;;;9.75;7.85;;;;;;;3.94;83.37;101499.92;1754765;80;20872;-84
2022/12/18 06:25:12;;;;;;;11.15;7.85;;;;;;;3.95;83.60;101502.91;1752820;80;20971;-85
2022/12/18 06:27:38;;;;;;;8.50;6.33;;;;;;;4.01;83.86;101505.41;1760463;79;20946;-84
2022/12/18 06:30:07;;;;;;;12.30;8.60;;;;;;;4.07;83.86;101511.78;1755151;80;21250;-84
2022/12/18 06:32:34;;;;;;;11.75;9.10;;;;;;;4.12;83.48;101510.40;1752898;80;20895;-83
2022/12/18 06:35:01;;;;;;;9.45;6.62;;;;;;;4.12;83.47;101516.89;1763906;80;20948;-83
2022/12/18 06:37:28;;;;;;;12.00;7.47;;;;;;;4.12;83.32;101515.14;1746909;80;21436;-84
2022/12/18 06:39:56;;;;;;;8.93;6.65;;;;;;;4.12;83.33;101520.33;1742933;80;21093;-83
2022/12/18 06:42:24;;;;;;;7.47;5.80;;;;;;;4.12;83.28;101517.73;1776477;79;21041;-85
2022/12/18 06:44:50;;;;;;;8.15;5.47;;;;;;;4.09;83.62;101520.41;1776708;80;21014;-85
2022/12/18 06:47:17;;;;;;;11.57;7.85;;;;;;;4.08;83.71;101523.86;1779281;79;20916;-84
2022/12/18 06:49:44;;;;;;;13.43;8.68;;;;;;;4.04;83.81;101529.99;1776761;79;20954;-84
2022/12/18 06:52:12;;;;;;;11.22;8.63;;;;;;;4.03;83.76;101533.48;1777672;79;20872;-86
2022/12/18 06:54:39;;;;;;;11.12;7.53;;;;;;;4.02;83.64;101542.14;1745332;80;21233;-84
2022/12/18 06:57:05;;;;;;;10.98;7.72;;;;;;;4.01;83.55;101541.73;1761845;80;20932;-85
2022/12/18 06:59:32;;;;;;;11.78;8.18;;;;;;;3.97;83.68;101537.48;1755522;80;20936;-85
2022/12/18 07:01:58;;;;;;;10.13;7.15;;;;;;;3.97;83.54;101543.97;1757002;81;20897;-84
2022/12/18 07:04:29;;;;;;;9.38;7.12;;;;;;;3.97;83.57;101541.38;1753372;80;20916;-86
2022/12/18 07:06:57;;;;;;;10.40;7.42;;;;;;;4.00;83.65;101548.24;1775933;79;21447;-84
2022/12/18 07:09:24;;;;;;;10.00;7.58;;;;;;;4.05;83.79;101550.34;1776968;80;20982;-87
2022/12/18 07:11:51;;;;;;;12.47;8.85;;;;;;;4.10;83.31;101556.30;1768884;79;21459;-86
2022/12/18 07:14:18;;;;;;;12.10;8.93;;;;;;;4.15;83.45;101561.80;1761226;80;20948;-84
2022/12/18 07:16:44;;;;;;;14.40;10.28;;;;;;;4.19;82.64;101570.84;1774927;79;21009;-86
2022/12/18 07:19:11;;;;;;;10.70;8.10;;;;;;;4.13;82.05;101567.45;1777068;80;21859;-84
2022/12/18 07:21:38;;;;;;;12.58;8.80;;;;;;;4.11;82.14;101565.78;1742494;80;20947;-85
2022/12/18 07:24:06;;;;;;;10.43;7.92;;;;;;;4.12;81.97;101574.00;1777184;79;20962;-86
2022/12/18 07:26:33;;;;;;;11.53;8.38;;;;;;;4.14;81.88;101571.78;1761607;80;20956;-84
2022/12/18 07:28:59;;;;;;;13.30;7.92;;;;;;;4.19;82.13;101568.25;1759013;80;21536;-85
2022/12/18 07:31:26;;;;;;;10.53;8.15;;;;;;;4.21;81.96;101576.88;1762035;80;21115;-84
2022/12/18 07:33:53;;;;;;;14.58;10.75;;;;;;;4.22;81.77;101582.02;1751165;80;20970;-84
2022/12/18 07:36:21;;;;;;;11.38;8.88;;;;;;;4.20;81.73;101599.36;1755965;80;20998;-85
2022/12/18 07:38:48;;;;;;;15.10;11.00;;;;;;;4.21;81.73;101606.28;1760265;80;21073;-85
2022/12/18 07:41:15;;;;;;;14.70;9.93;;;;;;;4.21;81.69;101615.81;1766727;80;21037;-85
2022/12/18 07:43:42;;;;;;;17.30;12.63;;;;;;;4.23;81.67;101619.24;1759872;80;21250;-85
2022/12/18 07:46:10;;;;;;;17.50;12.90;;;;;;;4.23;81.49;101620.09;1776920;80;21503;-85
2022/12/18 07:48:37;;;;;;;16.35;11.88;;;;;;;4.20;81.21;101617.98;1763782;80;20972;-85
2022/12/18 07:51:06;;;;;;;16.62;12.20;;;;;;;4.13;81.18;101621.97;1759572;80;20940;-84
2022/12/18 07:53:33;;;;;;;19.25;13.40;;;;;;;4.10;81.66;101618.59;1761957;80;20939;-84
2022/12/18 07:56:02;;;;;;;20.65;14.50;;;;;;;4.05;81.55;101625.61;1763382;80;21157;-83
2022/12/18 07:58:32;;;;;;;18.73;13.20;;;;;;;3.99;81.35;101626.55;1760962;80;21370;-84
2022/12/18 08:01:12;;;;;;;20.82;14.58;;;;;;;3.87;81.66;101625.47;1753692;80;21129;-84
2022/12/18 08:03:42;;;;;;;23.45;15.60;;;;;;;3.84;81.91;101625.50;1776205;77;20942;-86
2022/12/18 08:06:09;;;;;;;20.45;15.43;;;;;;;3.78;81.87;101625.58;1770094;77;20908;-86
2022/12/18 08:08:36;;;;;;;21.57;14.83;;;;;;;3.74;81.85;101630.83;1777525;77;21333;-83
2022/12/18 08:11:04;;;;;;;17.30;13.13;;;;;;;3.70;82.31;101628.31;1780643;77;21092;-84
2022/12/18 08:13:30;;;;;;;18.50;12.55;;;;;;;3.71;82.15;101629.59;1750408;78;20975;-83
2022/12/18 08:16:03;;;;;;;23.12;15.80;;;;;;;3.67;82.12;101637.45;1766789;79;21155;-84
2022/12/18 08:18:31;;;;;;;23.83;16.52;;;;;;;3.59;82.37;101638.84;1760126;80;21050;-85
2022/12/18 08:20:58;;;;;;;24.90;15.08;;;;;;;3.56;82.59;101645.38;1779584;77;21145;-86
2022/12/18 08:23:24;;;;;;;21.85;15.48;;;;;;;3.49;82.34;101644.61;1776831;77;20907;-83
2022/12/18 08:25:51;;;;;;;20.95;15.43;;;;;;;3.42;82.49;101643.41;1777415;79;20880;-84
2022/12/18 08:28:17;;;;;;;16.52;11.95;;;;;;;3.41;82.57;101645.59;1763014;80;20924;-84
2022/12/18 08:30:44;;;;;;;22.15;12.10;;;;;;;3.39;82.66;101644.30;1757852;80;20994;-85
2022/12/18 08:33:12;;;;;;;18.42;12.37;;;;;;;3.40;82.96;101645.16;1764160;80;21106;-84
2022/12/18 08:35:38;;;;;;;19.62;12.13;;;;;;;3.42;82.87;101649.89;1757818;80;20884;-84
2022/12/18 08:38:05;;;;;;;18.35;13.22;;;;;;;3.39;83.17;101649.50;1750798;80;21156;-85
2022/12/18 08:40:32;;;;;;;18.35;13.35;;;;;;;3.41;83.18;101662.00;1748559;80;21008;-86
2022/12/18 08:45:44;;;;;;;16.15;12.40;;;;;;;3.35;82.83;101659.93;1752198;80;21857;-86
2022/12/18 08:48:12;;;;;;;17.98;12.07;;;;;;;3.32;83.02;101662.98;1757272;80;20984;-84
2022/12/18 08:50:39;;;;;;;20.57;13.45;;;;;;;3.35;83.06;101667.26;1758839;80;20995;-85
2022/12/18 08:53:05;;;;;;;19.48;13.85;;;;;;;3.38;82.87;101670.25;1751679;80;20940;-85
2022/12/18 08:55:33;;;;;;;17.90;11.53;;;;;;;3.40;82.78;101670.67;1759029;80;20881;-85
2022/12/18 08:58:00;;;;;;;19.10;12.43;;;;;;;3.40;82.70;101671.97;1756261;81;21120;-84
2022/12/18 09:00:27;;;;;;;18.42;12.33;;;;;;;3.40;82.92;101670.67;1768700;79;20868;-85
2022/12/18 09:02:54;;;;;;;15.50;11.85;;;;;;;3.40;82.40;101679.75;1759003;80;20955;-85
2022/12/18 09:05:20;;;;;;;17.52;12.10;;;;;;;3.34;81.93;101678.97;1775396;80;20863;-86
2022/12/18 09:07:47;;;;;;;18.05;11.68;;;;;;;3.30;81.98;101672.95;1763143;79;20877;-85
2022/12/18 09:10:14;;;;;;;15.15;10.80;;;;;;;3.26;81.79;101669.97;1755861;80;21067;-84
2022/12/18 09:12:40;;;;;;;11.68;9.53;;;;;;;3.24;81.92;101679.06;1749878;79;21405;-85
2022/12/18 09:15:09;;;;;;;13.03;8.70;;;;;;;3.25;81.63;101673.02;1752733;80;20928;-83
2022/12/18 09:17:37;;;;;;;11.70;9.10;;;;;;;3.25;81.91;101673.45;1768671;80;21029;-84
2022/12/18 09:20:05;;;;;;;9.35;7.72;;;;;;;3.26;81.77;101677.75;1763748;80;20971;-84
2022/12/18 09:22:31;;;;;;;13.32;9.58;;;;;;;3.25;81.80;101670.87;1774560;79;21097;-85
2022/12/18 09:24:58;;;;;;;12.13;9.10;;;;;;;3.28;82.01;101672.11;1758889;80;20885;-83
2022/12/18 09:27:25;;;;;;;12.75;9.28;;;;;;;3.31;81.99;101678.13;1762557;80;21370;-84
2022/12/18 09:29:51;;;;;;;13.10;9.65;;;;;;;3.34;81.74;101669.89;1777145;79;20926;-86
2022/12/18 09:32:18;;;;;;;17.10;11.03;;;;;;;3.34;81.31;101672.04;1775279;79;20845;-85
2022/12/18 09:34:46;;;;;;;15.35;10.18;;;;;;;3.29;81.24;101672.52;1752344;80;21114;-83
2022/12/18 09:37:13;;;;;;;16.32;11.08;;;;;;;3.28;81.21;101670.81;1755137;80;21632;-83
2022/12/18 09:39:39;;;;;;;14.75;10.32;;;;;;;3.29;81.28;101672.10;1761742;79;20895;-84
2022/12/18 09:42:06;;;;;;;16.05;11.83;;;;;;;3.31;81.23;101672.94;1758423;79;20935;-84
2022/12/18 09:44:38;;;;;;;16.23;12.23;;;;;;;3.27;80.90;101676.89;1729014;80;20943;-84
2022/12/18 09:47:28;;;;;;;18.32;13.60;;;;;;;3.20;81.01;101680.00;1746120;80;21841;-84
2022/12/18 09:50:02;;;;;;;20.17;13.53;;;;;;;3.17;81.18;101676.12;1747566;80;21595;-83
2022/12/18 09:52:44;;;;;;;;;;;;;;;3.11;81.39;101675.78;1733311;80;21393;-83
2022/12/18 09:55:42;;;;;;;24.32;15.30;;;;;;;3.10;81.79;101678.38;1767650;80;20116;-83
2022/12/18 09:58:45;;;;;;;25.43;15.20;;;;;;;3.09;81.56;101677.95;1767632;80;21413;-83
2022/12/18 10:01:14;;;;;;;20.72;14.10;;;;;;;3.08;81.07;101683.58;1749745;80;21155;-84
2022/12/18 10:03:43;;;;;;;20.62;13.85;;;;;;;3.04;80.88;101686.22;1758101;80;20908;-83
2022/12/18 10:06:24;;;;;;;19.75;14.13;;;;;;;3.01;81.12;101689.70;1759465;80;20881;-85
2022/12/18 10:09:09;;;;;;;17.70;12.98;;;;;;;2.97;80.93;101684.14;1739697;80;21496;-83
2022/12/18 10:12:01;;;;;;;20.40;12.90;;;;;;;2.92;80.71;101690.27;1754518;79;20899;-84
2022/12/18 10:14:43;;;;;;;22.27;13.98;;;;;;;2.83;80.95;101693.81;1761917;79;21286;-85
2022/12/18 10:17:24;;;;;;;16.75;11.43;;;;;;;2.78;80.82;101686.09;1746312;80;20876;-82
2022/12/18 10:20:18;;;;;;;16.00;12.00;;;;;;;2.76;81.02;101693.42;1752920;80;20928;-84
2022/12/18 10:22:59;;;;;;;12.98;9.45;;;;;;;2.77;81.26;101699.89;1763360;80;20896;-83
2022/12/18 10:25:51;;;;;;;11.68;8.75;;;;;;;2.78;80.50;101688.67;1749794;80;21097;-85
2022/12/18 10:28:18;;;;;;;10.93;8.28;;;;;;;2.81;80.78;101698.99;1763055;79;21243;-84
2022/12/18 10:30:44;;;;;;;11.65;8.38;;;;;;;2.86;80.20;101703.68;1755517;79;20999;-83
2022/12/18 10:33:21;;;;;;;12.58;7.70;;;;;;;2.85;79.68;101702.42;1775261;79;20879;-83
2022/12/18 10:35:52;;;;;;;8.73;6.75;;;;;;;2.87;79.74;101708.00;1774322;79;21005;-87
2022/12/18 10:38:23;;;;;;;10.43;7.75;;;;;;;2.92;79.12;101712.28;1744154;80;21635;-83
2022/12/18 10:41:25;;;;;;;11.68;7.10;;;;;;;2.92;78.37;101707.10;1776175;79;21073;-84
2022/12/18 10:44:17;;;;;;;9.15;6.80;;;;;;;2.91;77.21;101708.81;1746738;79;20895;-83
2022/12/18 10:46:50;;;;;;;8.60;6.03;;;;;;;2.86;76.74;101711.90;1754863;80;20997;-84
2022/12/18 10:49:25;;;;;;;7.97;6.67;;;;;;;2.87;77.17;101711.04;1775857;79;20939;-84
2022/12/18 10:51:54;;;;;;;7.78;5.58;;;;;;;2.90;76.73;101708.41;1776479;79;20903;-84
2022/12/18 10:54:23;;;;;;;13.08;7.92;;;;;;;2.98;76.69;101719.55;1735607;80;21389;-84
2022/12/18 10:56:50;;;;;;;11.90;8.18;;;;;;;3.05;76.62;101716.02;1768750;80;20848;-85
2022/12/18 10:59:17;;;;;;;12.10;8.83;;;;;;;3.12;76.16;101718.09;1742456;80;21892;-85
2022/12/18 11:01:56;;;;;;;22.32;9.35;;;;;;;3.11;75.49;101715.95;1767740;80;21042;-85
2022/12/18 11:04:31;;;;;;;11.40;8.13;;;;;;;3.09;75.82;101721.59;1758954;80;20986;-85
2022/12/18 11:07:04;;;;;;;9.78;7.42;;;;;;;3.13;75.66;101717.20;1755633;79;21274;-84
2022/12/18 11:09:36;;;;;;;10.13;7.65;;;;;;;3.11;75.01;101722.84;1744591;80;20881;-84
2022/12/18 11:12:20;;;;;;;10.15;7.15;;;;;;;3.05;74.97;101717.75;1767232;80;20928;-84
2022/12/18 11:14:51;;;;;;;14.05;8.58;;;;;;;3.02;75.08;101723.80;1752047;80;20888;-85
2022/12/18 11:17:28;;;;;;;8.65;6.60;;;;;;;3.04;74.56;101732.42;1742482;80;21024;-84
2022/12/18 11:19:57;;;;;;;10.85;8.03;;;;;;;3.04;74.40;101730.27;1778221;80;21223;-83
2022/12/18 11:22:32;;;;;;;14.47;8.93;;;;;;;3.02;74.77;101731.58;1777267;77;20927;-83
2022/12/18 11:25:13;;;;;;;11.88;9.30;;;;;;;3.01;75.18;101735.05;1782137;77;20902;-85
2022/12/18 11:27:39;;;;;;;17.12;13.72;;;;;;;3.01;75.15;101727.73;1776346;79;20898;-84
2022/12/18 11:30:26;;;;;;;15.15;10.65;;;;;;;2.98;75.07;101732.51;1778206;79;20989;-86
2022/12/18 11:33:06;;;;;;;15.23;11.22;;;;;;;2.95;74.92;101739.00;1735776;80;21308;-84
2022/12/18 11:35:51;;;;;;;15.95;10.72;;;;;;;2.88;74.91;101730.88;1745388;80;20915;-84
2022/12/18 11:38:25;;;;;;;15.88;10.60;;;;;;;2.83;74.42;101739.14;1751502;80;21515;-84
2022/12/18 11:44:30;;;;;;;12.03;8.13;;;;;;;2.68;74.61;101749.20;1759973;80;21457;-87
2022/12/18 11:47:04;;;;;;;8.68;6.90;;;;;;;2.61;72.76;101752.72;1768391;79;21752;-85
2022/12/18 11:49:35;;;;;;;9.93;7.62;;;;;;;2.53;72.37;101762.27;1762405;80;20888;-88
2022/12/18 11:52:22;;;;;;;8.65;7.05;;;;;;;2.50;72.33;101754.10;1760457;80;20916;-85
2022/12/18 11:54:56;;;;;;;9.28;6.70;;;;;;;2.47;71.88;101769.23;1752194;80;20924;-86
2022/12/18 11:57:40;;;;;;;8.65;6.50;;;;;;;2.43;71.38;101759.77;1768878;80;21015;-84
2022/12/18 12:00:20;;;;;;;7.33;5.58;;;;;;;2.40;71.16;101770.16;1767818;79;21236;-85
2022/12/18 12:03:39;;;;;;;9.08;5.80;;;;;;;2.36;70.97;101777.95;1749819;80;21016;-86
2022/12/18 12:06:56;;;;;;;9.88;6.75;;;;;;;2.34;70.56;101786.17;1768465;80;20936;-87
2022/12/18 12:09:34;;;;;;;10.60;6.80;;;;;;;2.23;69.98;101788.38;1745945;79;20832;-85
2022/12/18 12:12:47;;;;;;;8.60;6.40;;;;;;;2.14;69.62;101794.06;1753930;80;20936;-87
2022/12/18 12:15:35;;;;;;;10.35;8.28;;;;;;;2.13;70.06;101796.20;1764845;80;21145;-86
2022/12/18 12:18:26;;;;;;;12.50;9.98;;;;;;;2.11;69.81;101800.53;1749010;80;21465;-86
2022/12/18 12:21:13;;;;;;;12.63;7.95;;;;;;;2.04;69.60;101814.78;1777943;80;20927;-85
2022/12/18 12:24:02;;;;;;;12.88;9.05;;;;;;;1.98;69.77;101816.55;1775634;79;21029;-84
2022/12/18 12:27:15;;;;;;;12.55;10.05;;;;;;;1.90;69.55;101820.48;1782106;79;21041;-85
2022/12/18 12:30:22;;;;;;;10.82;8.43;;;;;;;1.80;69.64;101817.08;1781936;79;21911;-84
2022/12/18 12:33:15;;;;;;;14.58;10.08;;;;;;;1.75;69.92;101825.27;1782809;79;20930;-86
2022/12/18 12:36:00;;;;;;;13.60;10.05;;;;;;;1.71;70.68;101822.27;1774574;79;20950;-84
2022/12/18 12:38:37;;;;;;;17.00;11.40;;;;;;;1.74;70.38;101831.77;1779401;79;21467;-85
2022/12/18 12:43:12;;;;;;;22.25;13.28;;;;;;;1.70;70.38;101842.98;1778478;79;21087;-86
2022/12/18 12:43:42;;;;;;;23.95;13.78;;;;;;;1.65;70.36;101842.56;1776222;79;22297;-84
2022/12/18 12:46:13;;;;;;;16.80;12.20;;;;;;;1.65;70.58;101850.31;1781555;79;21388;-87
2022/12/18 12:48:52;;;;;;;20.70;13.10;;;;;;;1.68;70.68;101848.59;1777394;79;21013;-85
2022/12/18 12:51:30;;;;;;;16.07;11.45;;;;;;;1.65;70.90;101854.63;1780129;79;20926;-85
2022/12/18 12:53:57;;;;;;;13.90;10.63;;;;;;;1.66;71.37;101860.22;1775473;79;21598;-86
2022/12/18 12:56:30;;;;;;;18.77;12.82;;;;;;;1.65;71.29;101871.00;1778744;79;21854;-85
2022/12/18 12:59:24;;;;;;;19.52;12.90;;;;;;;1.62;71.70;101870.13;1777102;79;20895;-86
2022/12/18 13:02:08;;;;;;;20.90;13.68;;;;;;;1.59;71.77;101876.18;1780958;79;20938;-85
2022/12/18 13:05:07;;;;;;;17.35;12.18;;;;;;;1.60;71.83;101880.91;1778096;79;21018;-86
2022/12/18 13:07:44;;;;;;;16.55;12.10;;;;;;;1.61;71.61;101883.94;1777086;79;20994;-84
2022/12/18 13:10:22;;;;;;;15.78;11.22;;;;;;;1.55;71.75;101887.39;1778379;79;21469;-86
2022/12/18 13:13:09;;;;;;;15.75;10.40;;;;;;;1.56;72.36;101889.56;1779810;79;21416;-85
2022/12/18 13:15:45;;;;;;;14.98;10.75;;;;;;;1.56;71.75;101897.33;1778270;79;20899;-85
2022/12/18 13:18:22;;;;;;;23.25;12.45;;;;;;;1.47;72.12;101889.55;1778888;79;21033;-85
2022/12/18 13:20:56;;;;;;;15.38;10.08;;;;;;;1.43;72.23;101892.16;1779610;79;21372;-86
2022/12/18 13:25:37;;;;;;;16.10;12.83;;;;;;;1.43;71.51;101901.64;1868428;75;27498;-86
2022/12/18 13:28:13;;;;;;;13.40;11.45;;;;;;;1.39;71.18;101915.43;1845204;77;28002;-84
2022/12/18 13:30:56;;;;;;;12.37;9.78;;;;;;;1.45;70.89;101911.11;1862220;76;20930;-85
2022/12/18 13:33:31;;;;;;;17.45;10.20;;;;;;;1.48;71.12;101913.27;1862293;76;20859;-84
2022/12/18 13:36:15;;;;;;;13.90;10.28;;;;;;;1.44;71.14;101917.56;1861066;77;20939;-85
2022/12/18 13:38:44;;;;;;;11.90;8.73;;;;;;;1.42;71.26;101922.77;1853640;77;21001;-85
2022/12/18 13:41:24;;;;;;;11.30;8.80;;;;;;;1.42;70.89;101921.47;1861349;77;21305;-85
2022/12/18 13:43:57;;;;;;;13.25;9.33;;;;;;;1.36;70.81;101935.68;1860910;77;21234;-84
2022/12/18 13:46:45;;;;;;;10.90;7.92;;;;;;;1.31;70.62;101928.78;1860908;76;20954;-88
2022/12/18 13:49:25;;;;;;;13.58;9.55;;;;;;;1.27;70.57;101942.15;1861137;77;20903;-84
2022/12/18 13:51:54;;;;;;;12.68;9.25;;;;;;;1.26;70.51;101942.99;1860028;77;20887;-85
2022/12/18 13:54:38;;;;;;;16.05;11.00;;;;;;;1.20;70.10;101953.32;1861033;77;20867;-85
2022/12/18 13:57:06;;;;;;;12.85;8.35;;;;;;;1.14;70.31;101950.77;1861037;77;21159;-84
2022/12/18 13:59:38;;;;;;;16.90;8.10;;;;;;;1.11;70.81;101958.08;1860972;77;20959;-85
2022/12/18 14:02:17;;;;;;;11.93;7.65;;;;;;;1.13;71.00;101960.64;1861163;77;20903;-84
2022/12/18 14:04:46;;;;;;;40.08;27.77;;;;;;;1.12;70.42;101968.83;1861448;77;20875;-85
2022/12/18 14:10:47;;;;;;;11.95;8.18;;;;;;;1.05;70.24;101978.73;1860983;76;20886;-84
2022/12/18 14:13:25;;;;;;;13.15;9.88;;;;;;;1.00;70.27;101989.06;1861067;76;20942;-85
2022/12/18 14:15:53;;;;;;;12.68;8.60;;;;;;;0.96;69.70;101989.05;1861186;77;20911;-87
2022/12/18 14:18:44;;;;;;;11.18;8.58;;;;;;;0.90;69.98;102000.66;1830301;77;20883;-85
2022/12/18 14:21:29;;;;;;;14.20;7.95;;;;;;;0.86;69.95;101997.62;1861329;77;20916;-83
2022/12/18 14:24:17;;;;;;;15.93;9.88;;;;;;;0.83;70.21;102001.07;1853265;75;21248;-84
2022/12/18 14:26:48;;;;;;;17.80;10.90;;;;;;;0.83;70.48;101998.48;1808334;78;21384;-85
2022/12/18 14:29:30;;;;;;;14.50;9.78;;;;;;;0.82;70.47;101998.92;1808057;78;20879;-85
2022/12/18 14:32:18;;;;;;;14.18;9.48;;;;;;;0.80;70.66;101997.17;1836895;77;20887;-84
2022/12/18 14:34:55;;;;;;;21.10;11.53;;;;;;;0.73;71.10;101999.31;1838822;77;20926;-85
2022/12/18 14:37:25;;;;;;;16.77;9.90;;;;;;;0.65;71.51;102003.17;1838600;77;21214;-86
2022/12/18 14:39:59;;;;;;;14.83;9.83;;;;;;;0.64;71.56;102000.14;1837074;77;20832;-86
2022/12/18 14:42:27;;;;;;;13.25;8.78;;;;;;;0.60;71.55;102000.58;1837235;77;20882;-86
2022/12/18 14:45:42;;;;;;;12.07;8.90;;;;;;;0.58;71.76;102001.44;1835765;77;20918;-85
2022/12/18 14:48:14;;;;;;;11.90;8.30;;;;;;;0.55;71.69;102016.89;1808825;77;20823;-86
2022/12/18 14:51:22;;;;;;;16.93;10.78;;;;;;;0.48;71.11;102009.98;1835379;77;21776;-86
2022/12/18 14:53:57;;;;;;;14.33;8.18;;;;;;;0.37;71.13;102018.96;1837140;77;20871;-85
2022/12/18 14:56:36;;;;;;;10.90;9.03;;;;;;;0.38;71.20;102019.41;1835481;77;20926;-86
2022/12/18 14:59:22;;;;;;;11.80;8.20;;;;;;;0.33;70.78;102031.41;1808767;78;21013;-85
2022/12/18 15:02:03;;;;;;;13.50;8.40;;;;;;;0.26;70.73;102025.35;1835461;77;20966;-84
2022/12/18 15:04:38;;;;;;;8.95;7.30;;;;;;;0.23;71.10;102038.68;1835207;78;21197;-86
2022/12/18 15:07:14;;;;;;;13.58;8.05;;;;;;;0.18;70.74;102036.94;1835202;78;20930;-84
2022/12/18 15:10:24;;;;;;;11.50;7.70;;;;;;;0.16;70.79;102057.13;1835220;77;20871;-86
2022/12/18 15:13:03;;;;;;;10.13;7.85;;;;;;;0.12;70.80;102065.70;1835721;77;20898;-86
2022/12/18 15:15:40;;;;;;;9.13;7.08;;;;;;;0.07;70.65;102064.78;1835740;77;20871;-85
2022/12/18 15:18:20;;;;;;;11.80;7.83;;;;;;;0.06;70.17;102072.09;1835133;77;21243;-85
2022/12/18 15:20:58;;;;;;;10.25;7.67;;;;;;;0.06;69.94;102081.12;1835343;78;20930;-85
2022/12/18 15:23:33;;;;;;;9.90;7.45;;;;;;;0.06;70.28;102091.00;1835487;77;21388;-85
2022/12/18 15:26:07;;;;;;;11.20;7.85;;;;;;;0.05;70.04;102092.30;1835583;77;20890;-85
2022/12/18 15:28:47;;;;;;;8.88;7.25;;;;;;;-0.01;69.76;102102.13;1835094;77;20946;-84
2022/12/18 15:31:23;;;;;;;9.95;7.85;;;;;;;-0.01;69.85;102088.80;1835872;77;21078;-86
2022/12/18 15:33:59;;;;;;;10.15;7.58;;;;;;;0.01;69.66;102099.58;1835551;77;20895;-87
2022/12/18 15:36:30;;;;;;;10.50;7.95;;;;;;;-0.02;69.44;102102.56;1835807;77;20958;-88
2022/12/18 15:38:57;;;;;;;10.13;8.15;;;;;;;-0.06;69.39;102107.25;1835521;78;20962;-85
2022/12/18 15:41:24;;;;;;;9.10;6.72;;;;;;;-0.09;69.59;102111.52;1835451;76;21383;-87
2022/12/18 15:43:53;;;;;;;12.65;10.32;;;;;;;-0.13;69.47;102112.36;1835499;78;21094;-86
2022/12/18 15:46:22;;;;;;;13.20;7.90;;;;;;;-0.17;69.86;102111.89;1835663;77;21349;-86
2022/12/18 15:48:55;;;;;;;12.18;8.55;;;;;;;-0.16;69.90;102114.46;1835902;77;20906;-86
2022/12/18 15:51:35;;;;;;;13.23;9.33;;;;;;;-0.15;69.89;102118.79;1836031;77;20891;-86
2022/12/18 15:54:04;;;;;;;11.80;8.73;;;;;;;-0.12;69.98;102114.08;1836254;77;20820;-85
2022/12/18 15:59:20;;;;;;;10.78;8.55;;;;;;;-0.08;70.32;102132.16;1835207;77;20824;-86